sensor_id;sensor_type;location;lat;lon;timestamp;temperature;humidity
40287;DHT22;25998;46.604;13.610;2023-06-22T00:01:04;21.10;99.90
40287;DHT22;25998;46.604;13.610;2023-06-22T00:04:15;20.70;99.90
40287;DHT22;25998;46.604;13.610;2023-06-22T00:07:26;20.70;99.90
40287;DHT22;25998;46.604;13.610;2023-06-22T00:10:37;20.80;99.90
40287;DHT22;25998;46.604;13.610;2023-06-22T00:13:48;21.00;99.90
40287;DHT22;25998;46.604;13.610;2023-06-22T00:17:00;21.10;99.90
40287;DHT22;25998;46.604;13.610;2023-06-22T00:20:11;21.10;99.90
40287;DHT22;25998;46.604;13.610;2023-06-22T00:23:22;21.10;99.90
40287;DHT22;25998;46.604;13.610;2023-06-22T00:26:34;21.10;99.90
40287;DHT22;25998;46.604;13.610;2023-06-22T00:29:45;20.90;99.90
40287;DHT22;25998;46.604;13.610;2023-06-22T00:32:56;20.90;99.90
40287;DHT22;25998;46.604;13.610;2023-06-22T00:36:06;20.90;99.90
40287;DHT22;25998;46.604;13.610;2023-06-22T00:39:18;20.80;99.90
40287;DHT22;25998;46.604;13.610;2023-06-22T00:42:29;20.90;99.90
40287;DHT22;25998;46.604;13.610;2023-06-22T00:45:40;20.90;99.90
40287;DHT22;25998;46.604;13.610;2023-06-22T00:48:52;20.90;99.90
40287;DHT22;25998;46.604;13.610;2023-06-22T00:52:03;20.70;99.90
40287;DHT22;25998;46.604;13.610;2023-06-22T00:55:14;20.60;99.90
40287;DHT22;25998;46.604;13.610;2023-06-22T00:58:28;20.80;99.90
40287;DHT22;25998;46.604;13.610;2023-06-22T01:01:40;20.90;99.90
40287;DHT22;25998;46.604;13.610;2023-06-22T01:04:51;21.00;99.90
40287;DHT22;25998;46.604;13.610;2023-06-22T01:11:39;20.90;99.90
40287;DHT22;25998;46.604;13.610;2023-06-22T01:15:09;20.90;99.90
40287;DHT22;25998;46.604;13.610;2023-06-22T01:18:23;20.80;99.90
40287;DHT22;25998;46.604;13.610;2023-06-22T01:21:37;20.30;99.90
40287;DHT22;25998;46.604;13.610;2023-06-22T01:28:17;20.60;99.90
40287;DHT22;25998;46.604;13.610;2023-06-22T01:31:31;20.60;99.90
40287;DHT22;25998;46.604;13.610;2023-06-22T01:34:46;20.70;99.90
40287;DHT22;25998;46.604;13.610;2023-06-22T01:37:58;20.70;99.90
40287;DHT22;25998;46.604;13.610;2023-06-22T01:41:10;20.50;99.90
40287;DHT22;25998;46.604;13.610;2023-06-22T01:44:21;20.40;99.90
40287;DHT22;25998;46.604;13.610;2023-06-22T01:47:34;20.40;99.90
40287;DHT22;25998;46.604;13.610;2023-06-22T01:50:45;20.40;99.90
40287;DHT22;25998;46.604;13.610;2023-06-22T01:53:56;20.50;99.90
40287;DHT22;25998;46.604;13.610;2023-06-22T01:57:07;20.50;99.90
40287;DHT22;25998;46.604;13.610;2023-06-22T02:00:22;20.60;99.90
40287;DHT22;25998;46.604;13.610;2023-06-22T02:03:37;20.60;99.90
40287;DHT22;25998;46.604;13.610;2023-06-22T02:06:53;20.70;99.90
40287;DHT22;25998;46.604;13.610;2023-06-22T02:10:07;20.60;99.90
40287;DHT22;25998;46.604;13.610;2023-06-22T02:13:18;20.60;99.90
40287;DHT22;25998;46.604;13.610;2023-06-22T02:16:31;20.50;99.90
40287;DHT22;25998;46.604;13.610;2023-06-22T02:19:45;20.40;99.90
40287;DHT22;25998;46.604;13.610;2023-06-22T02:22:56;20.30;99.90
40287;DHT22;25998;46.604;13.610;2023-06-22T02:26:07;20.20;99.90
40287;DHT22;25998;46.604;13.610;2023-06-22T02:29:18;20.20;99.90
40287;DHT22;25998;46.604;13.610;2023-06-22T02:32:29;20.20;99.90
40287;DHT22;25998;46.604;13.610;2023-06-22T02:35:39;20.30;99.90
40287;DHT22;25998;46.604;13.610;2023-06-22T02:38:56;20.40;99.90
40287;DHT22;25998;46.604;13.610;2023-06-22T02:42:11;20.30;99.90
40287;DHT22;25998;46.604;13.610;2023-06-22T02:45:22;20.10;99.90
40287;DHT22;25998;46.604;13.610;2023-06-22T02:48:33;20.10;99.90
40287;DHT22;25998;46.604;13.610;2023-06-22T02:51:47;20.20;99.90
40287;DHT22;25998;46.604;13.610;2023-06-22T02:54:59;20.10;99.90
40287;DHT22;25998;46.604;13.610;2023-06-22T02:58:10;20.10;99.90
40287;DHT22;25998;46.604;13.610;2023-06-22T03:01:20;20.20;99.90
40287;DHT22;25998;46.604;13.610;2023-06-22T03:04:35;20.30;99.90
40287;DHT22;25998;46.604;13.610;2023-06-22T03:07:46;20.30;99.90
40287;DHT22;25998;46.604;13.610;2023-06-22T03:10:57;20.20;99.90
40287;DHT22;25998;46.604;13.610;2023-06-22T03:14:08;20.10;99.90
40287;DHT22;25998;46.604;13.610;2023-06-22T03:17:19;20.10;99.90
40287;DHT22;25998;46.604;13.610;2023-06-22T03:20:30;20.00;99.90
40287;DHT22;25998;46.604;13.610;2023-06-22T03:23:44;20.00;99.90
40287;DHT22;25998;46.604;13.610;2023-06-22T03:26:55;20.00;99.90
40287;DHT22;25998;46.604;13.610;2023-06-22T03:30:08;19.80;99.90
40287;DHT22;25998;46.604;13.610;2023-06-22T03:33:19;19.80;99.90
40287;DHT22;25998;46.604;13.610;2023-06-22T03:36:30;19.70;99.90
40287;DHT22;25998;46.604;13.610;2023-06-22T03:39:44;19.70;99.90
40287;DHT22;25998;46.604;13.610;2023-06-22T03:42:55;19.80;99.90
40287;DHT22;25998;46.604;13.610;2023-06-22T03:46:06;19.60;99.90
40287;DHT22;25998;46.604;13.610;2023-06-22T03:49:17;19.70;99.90
40287;DHT22;25998;46.604;13.610;2023-06-22T03:52:28;19.90;99.90
40287;DHT22;25998;46.604;13.610;2023-06-22T03:55:50;20.00;99.90
40287;DHT22;25998;46.604;13.610;2023-06-22T03:59:01;20.00;99.90
40287;DHT22;25998;46.604;13.610;2023-06-22T04:02:12;19.90;99.90
40287;DHT22;25998;46.604;13.610;2023-06-22T04:05:23;19.80;99.90
40287;DHT22;25998;46.604;13.610;2023-06-22T04:08:35;19.90;99.90
40287;DHT22;25998;46.604;13.610;2023-06-22T04:11:45;19.70;99.90
40287;DHT22;25998;46.604;13.610;2023-06-22T04:14:56;19.60;99.90
40287;DHT22;25998;46.604;13.610;2023-06-22T04:18:07;19.60;99.90
40287;DHT22;25998;46.604;13.610;2023-06-22T04:21:18;19.60;99.90
40287;DHT22;25998;46.604;13.610;2023-06-22T04:24:30;19.70;99.90
40287;DHT22;25998;46.604;13.610;2023-06-22T04:27:41;19.80;99.90
40287;DHT22;25998;46.604;13.610;2023-06-22T04:30:51;19.80;99.90
40287;DHT22;25998;46.604;13.610;2023-06-22T04:34:03;19.80;99.90
40287;DHT22;25998;46.604;13.610;2023-06-22T04:37:17;19.80;99.90
40287;DHT22;25998;46.604;13.610;2023-06-22T04:40:28;19.90;99.90
40287;DHT22;25998;46.604;13.610;2023-06-22T04:43:39;20.00;99.90
40287;DHT22;25998;46.604;13.610;2023-06-22T04:46:58;19.90;99.90
40287;DHT22;25998;46.604;13.610;2023-06-22T04:50:14;19.90;99.90
40287;DHT22;25998;46.604;13.610;2023-06-22T04:53:25;19.80;99.90
40287;DHT22;25998;46.604;13.610;2023-06-22T04:56:40;20.00;99.90
40287;DHT22;25998;46.604;13.610;2023-06-22T04:59:51;20.10;99.90
40287;DHT22;25998;46.604;13.610;2023-06-22T05:03:02;20.20;99.90
40287;DHT22;25998;46.604;13.610;2023-06-22T05:06:14;20.20;99.90
40287;DHT22;25998;46.604;13.610;2023-06-22T05:09:25;20.10;99.90
40287;DHT22;25998;46.604;13.610;2023-06-22T05:12:35;20.00;99.90
40287;DHT22;25998;46.604;13.610;2023-06-22T05:15:46;20.00;99.90
40287;DHT22;25998;46.604;13.610;2023-06-22T05:18:58;20.10;99.90
40287;DHT22;25998;46.604;13.610;2023-06-22T05:22:09;20.10;99.90
40287;DHT22;25998;46.604;13.610;2023-06-22T05:25:23;20.20;99.90
40287;DHT22;25998;46.604;13.610;2023-06-22T05:28:34;20.30;99.90
40287;DHT22;25998;46.604;13.610;2023-06-22T05:31:44;20.40;99.90
40287;DHT22;25998;46.604;13.610;2023-06-22T05:34:55;20.40;99.90
40287;DHT22;25998;46.604;13.610;2023-06-22T05:38:06;20.40;99.90
40287;DHT22;25998;46.604;13.610;2023-06-22T05:41:17;20.60;99.90
40287;DHT22;25998;46.604;13.610;2023-06-22T05:44:28;20.80;99.90
40287;DHT22;25998;46.604;13.610;2023-06-22T05:47:39;21.10;99.90
40287;DHT22;25998;46.604;13.610;2023-06-22T05:50:50;21.40;99.90
40287;DHT22;25998;46.604;13.610;2023-06-22T05:54:01;21.60;99.90
40287;DHT22;25998;46.604;13.610;2023-06-22T05:57:11;21.50;99.90
40287;DHT22;25998;46.604;13.610;2023-06-22T06:00:22;21.60;99.90
40287;DHT22;25998;46.604;13.610;2023-06-22T06:03:34;22.10;99.90
40287;DHT22;25998;46.604;13.610;2023-06-22T06:06:51;22.30;99.90
40287;DHT22;25998;46.604;13.610;2023-06-22T06:10:02;22.60;99.90
40287;DHT22;25998;46.604;13.610;2023-06-22T06:13:15;22.90;99.90
40287;DHT22;25998;46.604;13.610;2023-06-22T06:16:26;23.30;99.90
40287;DHT22;25998;46.604;13.610;2023-06-22T06:19:37;23.60;99.90
40287;DHT22;25998;46.604;13.610;2023-06-22T06:22:48;23.70;99.90
40287;DHT22;25998;46.604;13.610;2023-06-22T06:25:59;23.80;99.90
40287;DHT22;25998;46.604;13.610;2023-06-22T06:29:10;23.50;99.90
40287;DHT22;25998;46.604;13.610;2023-06-22T06:32:20;23.40;99.90
40287;DHT22;25998;46.604;13.610;2023-06-22T06:35:31;23.60;99.90
40287;DHT22;25998;46.604;13.610;2023-06-22T06:38:42;23.90;99.90
40287;DHT22;25998;46.604;13.610;2023-06-22T06:41:53;24.30;99.90
40287;DHT22;25998;46.604;13.610;2023-06-22T06:45:05;24.50;99.90
40287;DHT22;25998;46.604;13.610;2023-06-22T06:48:16;24.80;99.90
40287;DHT22;25998;46.604;13.610;2023-06-22T06:51:28;24.80;99.90
40287;DHT22;25998;46.604;13.610;2023-06-22T06:54:39;24.90;99.90
40287;DHT22;25998;46.604;13.610;2023-06-22T06:57:49;24.70;99.90
40287;DHT22;25998;46.604;13.610;2023-06-22T07:01:01;24.70;99.90
40287;DHT22;25998;46.604;13.610;2023-06-22T07:04:11;24.90;99.90
40287;DHT22;25998;46.604;13.610;2023-06-22T07:07:22;25.20;99.90
40287;DHT22;25998;46.604;13.610;2023-06-22T07:10:33;25.70;99.90
40287;DHT22;25998;46.604;13.610;2023-06-22T07:13:44;26.00;99.90
40287;DHT22;25998;46.604;13.610;2023-06-22T07:16:55;26.20;99.90
40287;DHT22;25998;46.604;13.610;2023-06-22T07:20:06;26.40;99.90
40287;DHT22;25998;46.604;13.610;2023-06-22T07:23:20;26.70;99.90
40287;DHT22;25998;46.604;13.610;2023-06-22T07:26:32;26.90;99.90
40287;DHT22;25998;46.604;13.610;2023-06-22T07:29:42;27.20;99.90
40287;DHT22;25998;46.604;13.610;2023-06-22T07:32:54;27.20;99.90
40287;DHT22;25998;46.604;13.610;2023-06-22T07:36:05;27.30;99.90
40287;DHT22;25998;46.604;13.610;2023-06-22T07:39:18;27.50;99.90
40287;DHT22;25998;46.604;13.610;2023-06-22T07:42:29;27.60;99.90
40287;DHT22;25998;46.604;13.610;2023-06-22T07:45:49;27.70;99.90
40287;DHT22;25998;46.604;13.610;2023-06-22T07:49:05;27.70;99.90
40287;DHT22;25998;46.604;13.610;2023-06-22T07:52:18;27.90;99.90
40287;DHT22;25998;46.604;13.610;2023-06-22T07:55:29;28.10;99.20
40287;DHT22;25998;46.604;13.610;2023-06-22T07:58:40;28.30;99.20
40287;DHT22;25998;46.604;13.610;2023-06-22T08:01:51;28.20;99.10
40287;DHT22;25998;46.604;13.610;2023-06-22T08:05:01;27.70;99.90
40287;DHT22;25998;46.604;13.610;2023-06-22T08:08:12;27.60;99.90
40287;DHT22;25998;46.604;13.610;2023-06-22T08:11:25;27.50;99.50
40287;DHT22;25998;46.604;13.610;2023-06-22T08:14:38;27.20;99.90
40287;DHT22;25998;46.604;13.610;2023-06-22T08:17:49;27.00;99.90
40287;DHT22;25998;46.604;13.610;2023-06-22T08:21:00;27.20;99.90
40287;DHT22;25998;46.604;13.610;2023-06-22T08:24:10;27.30;99.90
40287;DHT22;25998;46.604;13.610;2023-06-22T08:27:21;27.50;99.90
40287;DHT22;25998;46.604;13.610;2023-06-22T08:30:34;27.60;99.90
40287;DHT22;25998;46.604;13.610;2023-06-22T08:33:45;27.90;99.90
40287;DHT22;25998;46.604;13.610;2023-06-22T08:36:57;27.80;99.90
40287;DHT22;25998;46.604;13.610;2023-06-22T08:40:09;27.90;99.90
40287;DHT22;25998;46.604;13.610;2023-06-22T08:43:21;28.20;99.90
40287;DHT22;25998;46.604;13.610;2023-06-22T08:46:31;27.70;99.90
40287;DHT22;25998;46.604;13.610;2023-06-22T08:49:44;27.60;99.90
40287;DHT22;25998;46.604;13.610;2023-06-22T08:52:54;27.40;99.80
40287;DHT22;25998;46.604;13.610;2023-06-22T08:56:05;27.90;99.90
40287;DHT22;25998;46.604;13.610;2023-06-22T08:59:16;28.20;99.30
40287;DHT22;25998;46.604;13.610;2023-06-22T09:02:27;28.70;99.10
40287;DHT22;25998;46.604;13.610;2023-06-22T09:05:41;28.80;98.40
40287;DHT22;25998;46.604;13.610;2023-06-22T09:08:51;28.60;98.50
40287;DHT22;25998;46.604;13.610;2023-06-22T09:12:03;28.70;99.50
40287;DHT22;25998;46.604;13.610;2023-06-22T09:15:14;28.90;99.00
40287;DHT22;25998;46.604;13.610;2023-06-22T09:18:25;29.20;99.50
40287;DHT22;25998;46.604;13.610;2023-06-22T09:21:36;29.20;98.80
40287;DHT22;25998;46.604;13.610;2023-06-22T09:24:47;29.20;99.00
40287;DHT22;25998;46.604;13.610;2023-06-22T09:27:58;29.60;99.40
40287;DHT22;25998;46.604;13.610;2023-06-22T09:31:09;30.00;98.30
40287;DHT22;25998;46.604;13.610;2023-06-22T09:34:20;29.90;98.30
40287;DHT22;25998;46.604;13.610;2023-06-22T09:37:30;30.20;97.30
40287;DHT22;25998;46.604;13.610;2023-06-22T09:40:41;30.00;97.60
40287;DHT22;25998;46.604;13.610;2023-06-22T09:43:52;29.50;97.10
40287;DHT22;25998;46.604;13.610;2023-06-22T09:47:04;29.00;98.80
40287;DHT22;25998;46.604;13.610;2023-06-22T09:50:15;29.20;98.60
40287;DHT22;25998;46.604;13.610;2023-06-22T09:53:26;29.80;97.60
40287;DHT22;25998;46.604;13.610;2023-06-22T09:56:38;30.00;96.30
40287;DHT22;25998;46.604;13.610;2023-06-22T09:59:48;30.00;98.30
40287;DHT22;25998;46.604;13.610;2023-06-22T10:02:59;30.00;99.90
40287;DHT22;25998;46.604;13.610;2023-06-22T10:06:10;30.30;97.10
40287;DHT22;25998;46.604;13.610;2023-06-22T10:09:21;30.60;97.60
40287;DHT22;25998;46.604;13.610;2023-06-22T10:12:32;30.10;97.40
40287;DHT22;25998;46.604;13.610;2023-06-22T10:15:43;29.70;98.20
40287;DHT22;25998;46.604;13.610;2023-06-22T10:18:56;29.50;98.60
40287;DHT22;25998;46.604;13.610;2023-06-22T10:22:06;29.50;98.80
40287;DHT22;25998;46.604;13.610;2023-06-22T10:25:17;30.00;98.80
40287;DHT22;25998;46.604;13.610;2023-06-22T10:28:28;30.60;97.60
40287;DHT22;25998;46.604;13.610;2023-06-22T10:31:39;31.00;98.40
40287;DHT22;25998;46.604;13.610;2023-06-22T10:34:50;30.90;97.20
40287;DHT22;25998;46.604;13.610;2023-06-22T10:38:01;30.80;98.70
40287;DHT22;25998;46.604;13.610;2023-06-22T10:41:11;30.70;98.00
40287;DHT22;25998;46.604;13.610;2023-06-22T10:44:22;30.90;98.40
40287;DHT22;25998;46.604;13.610;2023-06-22T10:47:33;31.10;98.70
40287;DHT22;25998;46.604;13.610;2023-06-22T10:50:44;31.30;98.80
40287;DHT22;25998;46.604;13.610;2023-06-22T10:53:55;31.50;98.50
40287;DHT22;25998;46.604;13.610;2023-06-22T10:57:06;31.80;97.90
40287;DHT22;25998;46.604;13.610;2023-06-22T11:00:20;31.80;98.20
40287;DHT22;25998;46.604;13.610;2023-06-22T11:03:32;31.80;98.00
40287;DHT22;25998;46.604;13.610;2023-06-22T11:06:43;31.60;97.20
40287;DHT22;25998;46.604;13.610;2023-06-22T11:09:54;31.50;98.20
40287;DHT22;25998;46.604;13.610;2023-06-22T11:13:05;31.40;97.40
40287;DHT22;25998;46.604;13.610;2023-06-22T11:16:20;31.50;96.60
40287;DHT22;25998;46.604;13.610;2023-06-22T11:19:31;31.80;99.30
40287;DHT22;25998;46.604;13.610;2023-06-22T11:22:42;32.10;97.20
40287;DHT22;25998;46.604;13.610;2023-06-22T11:25:52;32.30;96.00
40287;DHT22;25998;46.604;13.610;2023-06-22T11:29:03;32.20;96.70
40287;DHT22;25998;46.604;13.610;2023-06-22T11:32:15;32.10;96.60
40287;DHT22;25998;46.604;13.610;2023-06-22T11:35:26;31.90;96.60
40287;DHT22;25998;46.604;13.610;2023-06-22T11:38:37;31.90;96.80
40287;DHT22;25998;46.604;13.610;2023-06-22T11:41:49;32.00;96.20
40287;DHT22;25998;46.604;13.610;2023-06-22T11:45:00;32.20;97.20
40287;DHT22;25998;46.604;13.610;2023-06-22T11:48:12;32.20;95.60
40287;DHT22;25998;46.604;13.610;2023-06-22T11:51:23;32.10;95.20
40287;DHT22;25998;46.604;13.610;2023-06-22T11:54:33;32.00;95.80
40287;DHT22;25998;46.604;13.610;2023-06-22T11:57:55;32.10;96.20
40287;DHT22;25998;46.604;13.610;2023-06-22T12:01:09;32.40;96.30
40287;DHT22;25998;46.604;13.610;2023-06-22T12:04:20;32.50;95.80
40287;DHT22;25998;46.604;13.610;2023-06-22T12:07:30;32.30;96.30
40287;DHT22;25998;46.604;13.610;2023-06-22T12:10:41;32.10;96.00
40287;DHT22;25998;46.604;13.610;2023-06-22T12:13:52;32.30;96.90
40287;DHT22;25998;46.604;13.610;2023-06-22T12:17:03;32.60;96.10
40287;DHT22;25998;46.604;13.610;2023-06-22T12:20:14;32.40;95.60
40287;DHT22;25998;46.604;13.610;2023-06-22T12:23:25;32.70;96.00
40287;DHT22;25998;46.604;13.610;2023-06-22T12:26:36;32.80;95.70
40287;DHT22;25998;46.604;13.610;2023-06-22T12:29:47;32.90;95.50
40287;DHT22;25998;46.604;13.610;2023-06-22T12:32:58;32.80;95.90
40287;DHT22;25998;46.604;13.610;2023-06-22T12:36:09;32.80;95.70
40287;DHT22;25998;46.604;13.610;2023-06-22T12:39:20;32.90;96.10
40287;DHT22;25998;46.604;13.610;2023-06-22T12:42:31;33.10;96.50
40287;DHT22;25998;46.604;13.610;2023-06-22T12:45:41;33.20;95.50
40287;DHT22;25998;46.604;13.610;2023-06-22T12:48:52;33.20;95.00
40287;DHT22;25998;46.604;13.610;2023-06-22T12:52:08;33.30;95.70
40287;DHT22;25998;46.604;13.610;2023-06-22T12:55:19;33.30;95.50
40287;DHT22;25998;46.604;13.610;2023-06-22T12:58:30;33.20;94.20
40287;DHT22;25998;46.604;13.610;2023-06-22T13:01:40;33.30;95.00
40287;DHT22;25998;46.604;13.610;2023-06-22T13:04:51;33.30;93.00
40287;DHT22;25998;46.604;13.610;2023-06-22T13:08:02;33.60;94.80
40287;DHT22;25998;46.604;13.610;2023-06-22T13:11:13;33.80;94.10
40287;DHT22;25998;46.604;13.610;2023-06-22T13:14:24;33.80;94.10
40287;DHT22;25998;46.604;13.610;2023-06-22T13:17:35;33.70;94.10
40287;DHT22;25998;46.604;13.610;2023-06-22T13:20:46;33.70;94.60
40287;DHT22;25998;46.604;13.610;2023-06-22T13:23:57;33.70;94.10
40287;DHT22;25998;46.604;13.610;2023-06-22T13:27:08;33.90;93.80
40287;DHT22;25998;46.604;13.610;2023-06-22T13:30:19;33.80;93.90
40287;DHT22;25998;46.604;13.610;2023-06-22T13:33:29;33.60;94.50
40287;DHT22;25998;46.604;13.610;2023-06-22T13:36:41;33.30;94.80
40287;DHT22;25998;46.604;13.610;2023-06-22T13:39:52;33.00;94.40
40287;DHT22;25998;46.604;13.610;2023-06-22T13:43:02;33.00;95.80
40287;DHT22;25998;46.604;13.610;2023-06-22T13:46:13;33.00;95.80
40287;DHT22;25998;46.604;13.610;2023-06-22T13:49:24;33.00;95.00
40287;DHT22;25998;46.604;13.610;2023-06-22T13:52:35;33.00;95.10
40287;DHT22;25998;46.604;13.610;2023-06-22T13:55:47;33.00;95.00
40287;DHT22;25998;46.604;13.610;2023-06-22T13:58:58;33.00;95.40
40287;DHT22;25998;46.604;13.610;2023-06-22T14:02:09;32.80;96.00
40287;DHT22;25998;46.604;13.610;2023-06-22T14:05:20;32.60;94.60
40287;DHT22;25998;46.604;13.610;2023-06-22T14:08:31;32.80;94.60
40287;DHT22;25998;46.604;13.610;2023-06-22T14:11:42;33.20;94.90
40287;DHT22;25998;46.604;13.610;2023-06-22T14:14:53;33.30;94.10
40287;DHT22;25998;46.604;13.610;2023-06-22T14:18:03;33.50;94.80
40287;DHT22;25998;46.604;13.610;2023-06-22T14:21:14;33.60;93.70
40287;DHT22;25998;46.604;13.610;2023-06-22T14:24:25;33.80;92.20
40287;DHT22;25998;46.604;13.610;2023-06-22T14:27:36;33.90;93.70
40287;DHT22;25998;46.604;13.610;2023-06-22T14:30:47;34.20;93.30
40287;DHT22;25998;46.604;13.610;2023-06-22T14:34:01;34.10;93.30
40287;DHT22;25998;46.604;13.610;2023-06-22T14:37:14;34.10;92.40
40287;DHT22;25998;46.604;13.610;2023-06-22T14:40:24;34.20;92.80
40287;DHT22;25998;46.604;13.610;2023-06-22T14:43:35;34.20;92.10
40287;DHT22;25998;46.604;13.610;2023-06-22T14:46:46;34.40;91.90
40287;DHT22;25998;46.604;13.610;2023-06-22T14:49:57;34.30;91.10
40287;DHT22;25998;46.604;13.610;2023-06-22T14:53:08;34.20;90.30
40287;DHT22;25998;46.604;13.610;2023-06-22T14:56:19;34.20;90.70
40287;DHT22;25998;46.604;13.610;2023-06-22T14:59:30;34.20;90.30
40287;DHT22;25998;46.604;13.610;2023-06-22T15:02:41;34.20;88.70
40287;DHT22;25998;46.604;13.610;2023-06-22T15:05:51;34.10;90.00
40287;DHT22;25998;46.604;13.610;2023-06-22T15:09:02;34.10;90.80
40287;DHT22;25998;46.604;13.610;2023-06-22T15:12:13;33.90;89.80
40287;DHT22;25998;46.604;13.610;2023-06-22T15:15:24;33.90;87.10
40287;DHT22;25998;46.604;13.610;2023-06-22T15:18:35;33.80;89.70
40287;DHT22;25998;46.604;13.610;2023-06-22T15:21:47;33.80;84.60
40287;DHT22;25998;46.604;13.610;2023-06-22T15:24:57;33.80;85.60
40287;DHT22;25998;46.604;13.610;2023-06-22T15:28:08;34.00;87.30
40287;DHT22;25998;46.604;13.610;2023-06-22T15:31:19;34.00;83.20
40287;DHT22;25998;46.604;13.610;2023-06-22T15:34:30;34.00;86.70
40287;DHT22;25998;46.604;13.610;2023-06-22T15:37:41;34.00;83.90
40287;DHT22;25998;46.604;13.610;2023-06-22T15:40:52;33.70;86.50
40287;DHT22;25998;46.604;13.610;2023-06-22T15:44:03;33.70;84.20
40287;DHT22;25998;46.604;13.610;2023-06-22T15:47:14;33.70;84.90
40287;DHT22;25998;46.604;13.610;2023-06-22T15:50:24;33.80;84.60
40287;DHT22;25998;46.604;13.610;2023-06-22T15:53:35;33.70;83.40
40287;DHT22;25998;46.604;13.610;2023-06-22T15:56:46;33.70;84.20
40287;DHT22;25998;46.604;13.610;2023-06-22T15:59:57;33.50;87.30
40287;DHT22;25998;46.604;13.610;2023-06-22T16:03:08;33.40;87.80
40287;DHT22;25998;46.604;13.610;2023-06-22T16:06:20;33.00;91.10
40287;DHT22;25998;46.604;13.610;2023-06-22T16:09:31;32.50;91.50
40287;DHT22;25998;46.604;13.610;2023-06-22T16:12:43;32.00;87.50
40287;DHT22;25998;46.604;13.610;2023-06-22T16:15:55;31.90;92.20
40287;DHT22;25998;46.604;13.610;2023-06-22T16:19:06;31.80;91.40
40287;DHT22;25998;46.604;13.610;2023-06-22T16:22:17;31.60;92.50
40287;DHT22;25998;46.604;13.610;2023-06-22T16:25:28;31.20;92.40
40287;DHT22;25998;46.604;13.610;2023-06-22T16:28:39;30.90;93.50
40287;DHT22;25998;46.604;13.610;2023-06-22T16:31:50;30.80;92.60
40287;DHT22;25998;46.604;13.610;2023-06-22T16:35:01;30.60;92.90
40287;DHT22;25998;46.604;13.610;2023-06-22T16:38:12;30.50;93.80
40287;DHT22;25998;46.604;13.610;2023-06-22T16:41:22;30.50;93.70
40287;DHT22;25998;46.604;13.610;2023-06-22T16:44:36;30.30;94.10
40287;DHT22;25998;46.604;13.610;2023-06-22T16:47:49;30.10;93.50
40287;DHT22;25998;46.604;13.610;2023-06-22T16:51:00;29.70;94.90
40287;DHT22;25998;46.604;13.610;2023-06-22T16:54:12;29.60;94.50
40287;DHT22;25998;46.604;13.610;2023-06-22T16:57:24;29.50;94.60
40287;DHT22;25998;46.604;13.610;2023-06-22T17:00:35;29.40;95.50
40287;DHT22;25998;46.604;13.610;2023-06-22T17:07:15;29.20;94.80
40287;DHT22;25998;46.604;13.610;2023-06-22T17:10:28;29.20;94.80
40287;DHT22;25998;46.604;13.610;2023-06-22T17:13:38;29.00;95.50
40287;DHT22;25998;46.604;13.610;2023-06-22T17:16:49;29.10;94.70
40287;DHT22;25998;46.604;13.610;2023-06-22T17:20:00;29.00;95.70
40287;DHT22;25998;46.604;13.610;2023-06-22T17:23:11;28.90;95.40
40287;DHT22;25998;46.604;13.610;2023-06-22T17:26:23;28.80;95.10
40287;DHT22;25998;46.604;13.610;2023-06-22T17:29:34;28.50;95.30
40287;DHT22;25998;46.604;13.610;2023-06-22T17:32:46;28.40;95.40
40287;DHT22;25998;46.604;13.610;2023-06-22T17:35:57;28.20;95.50
40287;DHT22;25998;46.604;13.610;2023-06-22T17:39:13;28.20;94.80
40287;DHT22;25998;46.604;13.610;2023-06-22T17:42:25;28.30;95.60
40287;DHT22;25998;46.604;13.610;2023-06-22T17:45:42;28.30;95.70
40287;DHT22;25998;46.604;13.610;2023-06-22T17:48:55;28.10;95.60
40287;DHT22;25998;46.604;13.610;2023-06-22T17:52:18;28.00;95.60
40287;DHT22;25998;46.604;13.610;2023-06-22T17:55:33;27.90;95.40
40287;DHT22;25998;46.604;13.610;2023-06-22T17:58:51;27.70;95.60
40287;DHT22;25998;46.604;13.610;2023-06-22T18:02:06;27.70;96.60
40287;DHT22;25998;46.604;13.610;2023-06-22T18:05:31;27.50;95.70
40287;DHT22;25998;46.604;13.610;2023-06-22T18:08:43;27.30;96.80
40287;DHT22;25998;46.604;13.610;2023-06-22T18:11:54;27.10;96.00
40287;DHT22;25998;46.604;13.610;2023-06-22T18:15:10;26.90;97.70
40287;DHT22;25998;46.604;13.610;2023-06-22T18:18:21;27.10;97.20
40287;DHT22;25998;46.604;13.610;2023-06-22T18:21:35;27.00;97.20
40287;DHT22;25998;46.604;13.610;2023-06-22T18:24:49;26.90;96.10
40287;DHT22;25998;46.604;13.610;2023-06-22T18:28:00;26.90;96.40
40287;DHT22;25998;46.604;13.610;2023-06-22T18:31:12;26.80;96.50
40287;DHT22;25998;46.604;13.610;2023-06-22T18:34:23;26.80;96.60
40287;DHT22;25998;46.604;13.610;2023-06-22T18:37:36;26.80;97.10
40287;DHT22;25998;46.604;13.610;2023-06-22T18:40:50;26.70;96.80
40287;DHT22;25998;46.604;13.610;2023-06-22T18:44:07;26.50;96.60
40287;DHT22;25998;46.604;13.610;2023-06-22T18:47:28;26.30;96.50
40287;DHT22;25998;46.604;13.610;2023-06-22T18:50:45;26.30;96.10
40287;DHT22;25998;46.604;13.610;2023-06-22T18:54:03;26.20;97.00
40287;DHT22;25998;46.604;13.610;2023-06-22T18:57:25;26.20;96.80
40287;DHT22;25998;46.604;13.610;2023-06-22T19:00:36;26.20;96.60
40287;DHT22;25998;46.604;13.610;2023-06-22T19:03:50;26.00;96.40
40287;DHT22;25998;46.604;13.610;2023-06-22T19:07:01;25.80;96.60
40287;DHT22;25998;46.604;13.610;2023-06-22T19:10:38;25.60;97.50
40287;DHT22;25998;46.604;13.610;2023-06-22T19:13:50;25.50;97.40
40287;DHT22;25998;46.604;13.610;2023-06-22T19:17:02;25.40;97.60
40287;DHT22;25998;46.604;13.610;2023-06-22T19:20:12;25.50;97.90
40287;DHT22;25998;46.604;13.610;2023-06-22T19:23:24;25.50;97.90
40287;DHT22;25998;46.604;13.610;2023-06-22T19:26:39;25.40;97.40
40287;DHT22;25998;46.604;13.610;2023-06-22T19:30:02;25.30;97.40
40287;DHT22;25998;46.604;13.610;2023-06-22T19:33:14;25.30;97.60
40287;DHT22;25998;46.604;13.610;2023-06-22T19:36:39;25.20;97.90
40287;DHT22;25998;46.604;13.610;2023-06-22T19:39:51;25.00;97.10
40287;DHT22;25998;46.604;13.610;2023-06-22T19:43:02;25.00;97.60
40287;DHT22;25998;46.604;13.610;2023-06-22T19:46:14;24.90;97.80
40287;DHT22;25998;46.604;13.610;2023-06-22T19:49:25;24.90;97.70
40287;DHT22;25998;46.604;13.610;2023-06-22T19:52:38;25.00;97.40
40287;DHT22;25998;46.604;13.610;2023-06-22T19:55:50;24.80;98.20
40287;DHT22;25998;46.604;13.610;2023-06-22T19:59:11;24.70;97.80
40287;DHT22;25998;46.604;13.610;2023-06-22T20:02:25;24.50;98.30